createdAt,value
2023-12-26T00:00:25.625Z,99.99
2023-12-26T00:01:25.673Z,99.99
2023-12-26T00:02:25.603Z,99.99
2023-12-26T00:03:25.710Z,99.99
2023-12-26T00:04:28.754Z,99.99
2023-12-26T00:05:25.611Z,99.99
2023-12-26T00:06:25.635Z,99.98
2023-12-26T00:07:25.579Z,99.99
2023-12-26T00:08:25.566Z,99.78
2023-12-26T00:09:25.487Z,99.99
2023-12-26T00:10:25.495Z,99.88
2023-12-26T00:11:25.466Z,99.98
2023-12-26T00:12:25.496Z,99.99
2023-12-26T00:13:25.481Z,99.99
2023-12-26T00:14:25.437Z,99.99
2023-12-26T00:15:25.435Z,99.99
2023-12-26T00:16:25.405Z,99.78
2023-12-26T00:17:25.534Z,99.99
2023-12-26T00:18:25.507Z,99.98
2023-12-26T00:19:25.454Z,99.78
2023-12-26T00:20:25.371Z,99.57
2023-12-26T00:21:25.364Z,99.47
2023-12-26T00:22:25.367Z,99.68
2023-12-26T00:23:25.350Z,99.57
2023-12-26T00:24:25.321Z,99.27
2023-12-26T00:25:25.329Z,99.78
2023-12-26T00:26:25.325Z,99.16
2023-12-26T00:27:25.324Z,99.37
2023-12-26T00:28:25.289Z,99.57
2023-12-26T00:29:25.288Z,99.27
2023-12-26T00:30:25.396Z,99.78
2023-12-26T00:31:25.284Z,99.68
2023-12-26T00:32:25.271Z,99.78
2023-12-26T00:33:25.480Z,99.57
2023-12-26T00:34:25.302Z,99.06
2023-12-26T00:35:25.219Z,99.27
2023-12-26T00:36:25.239Z,99.16
2023-12-26T00:37:25.198Z,99.47
2023-12-26T00:38:25.180Z,99.68
2023-12-26T00:39:25.176Z,99.37
2023-12-26T00:40:25.172Z,99.57
2023-12-26T00:41:25.177Z,99.57
2023-12-26T00:42:25.251Z,99.47
2023-12-26T00:43:25.138Z,99.47
2023-12-26T00:44:25.120Z,99.78
2023-12-26T00:45:25.146Z,99.99
2023-12-26T00:46:25.132Z,99.88
2023-12-26T00:47:25.133Z,99.82
2023-12-26T00:48:25.162Z,99.78
2023-12-26T00:49:25.157Z,99.93
2023-12-26T00:50:25.068Z,99.98
2023-12-26T00:51:25.064Z,99.72
2023-12-26T00:52:25.036Z,99.99
2023-12-26T00:53:25.030Z,99.82
2023-12-26T00:54:25.029Z,99.99
2023-12-26T00:55:25.031Z,99.99
2023-12-26T00:56:25.008Z,99.99
2023-12-26T00:57:25.005Z,99.99
2023-12-26T00:58:24.982Z,99.99
2023-12-26T00:59:24.980Z,99.99
2023-12-26T01:00:25.040Z,99.99
2023-12-26T01:01:24.950Z,99.99
2023-12-26T01:02:24.928Z,99.99
2023-12-26T01:03:24.955Z,99.99
2023-12-26T01:04:24.944Z,99.99
2023-12-26T01:05:25.044Z,99.99
2023-12-26T01:06:24.906Z,99.99
2023-12-26T01:07:24.886Z,99.99
2023-12-26T01:08:24.878Z,99.99
2023-12-26T01:09:24.876Z,99.99
2023-12-26T01:10:24.865Z,99.99
2023-12-26T01:11:24.842Z,99.99
2023-12-26T01:12:24.822Z,99.99
2023-12-26T01:13:24.832Z,99.99
2023-12-26T01:14:24.809Z,99.99
2023-12-26T01:15:24.805Z,99.99
2023-12-26T01:16:24.783Z,99.99
2023-12-26T01:17:24.822Z,99.99
2023-12-26T01:18:24.869Z,99.99
2023-12-26T01:19:24.909Z,99.99
2023-12-26T01:20:24.736Z,99.99
2023-12-26T01:21:24.731Z,99.99
2023-12-26T01:22:24.854Z,99.99
2023-12-26T01:23:24.776Z,99.99
2023-12-26T01:24:24.693Z,99.99
2023-12-26T01:25:24.703Z,99.99
2023-12-26T01:26:24.693Z,99.99
2023-12-26T01:27:25.221Z,99.99
2023-12-26T01:28:24.652Z,99.99
2023-12-26T01:29:24.683Z,99.99
2023-12-26T01:30:24.708Z,99.99
2023-12-26T01:31:24.637Z,99.99
2023-12-26T01:32:24.655Z,99.99
2023-12-26T01:33:24.801Z,99.99
2023-12-26T01:34:24.654Z,99.99
2023-12-26T01:35:24.602Z,99.99
2023-12-26T01:36:24.585Z,99.99
2023-12-26T01:37:24.611Z,99.99
2023-12-26T01:38:24.549Z,99.99
2023-12-26T01:39:24.549Z,99.99
2023-12-26T01:40:24.532Z,99.99
2023-12-26T01:41:24.550Z,99.99
2023-12-26T01:42:24.518Z,99.99
2023-12-26T01:43:24.543Z,99.99
2023-12-26T01:44:24.493Z,99.99
2023-12-26T01:45:24.538Z,99.99
2023-12-26T01:46:24.500Z,99.99
2023-12-26T01:47:24.478Z,99.99
2023-12-26T01:48:24.662Z,99.99
2023-12-26T01:49:24.546Z,99.99
2023-12-26T01:50:24.442Z,99.99
2023-12-26T01:51:24.554Z,99.99
2023-12-26T01:52:24.423Z,99.99
2023-12-26T01:53:24.412Z,99.99
2023-12-26T01:54:24.391Z,99.99
2023-12-26T01:55:24.402Z,99.99
2023-12-26T01:56:25.071Z,99.99
2023-12-26T01:57:24.366Z,99.99
2023-12-26T01:58:24.349Z,99.99
2023-12-26T01:59:24.360Z,99.99
2023-12-26T02:00:24.339Z,99.99
2023-12-26T02:01:24.338Z,99.99
2023-12-26T02:02:24.313Z,99.99
2023-12-26T02:03:24.462Z,99.99
2023-12-26T02:04:24.305Z,99.82
2023-12-26T02:05:24.336Z,99.99
2023-12-26T02:06:24.283Z,99.99
2023-12-26T02:07:24.271Z,99.93
2023-12-26T02:08:24.252Z,99.72
2023-12-26T02:09:24.261Z,99.82
2023-12-26T02:10:24.240Z,99.62
2023-12-26T02:11:24.221Z,99.82
2023-12-26T02:12:24.210Z,99.72
2023-12-26T02:13:24.203Z,99.62
2023-12-26T02:14:24.202Z,99.82
2023-12-26T02:15:24.211Z,99.47
2023-12-26T02:16:24.154Z,99.41
2023-12-26T02:17:24.157Z,99.62
2023-12-26T02:18:24.285Z,99.62
2023-12-26T02:19:24.214Z,99.11
2023-12-26T02:20:24.122Z,99.11
2023-12-26T02:21:24.112Z,99.01
2023-12-26T02:22:24.270Z,99.37
2023-12-26T02:23:24.101Z,98.75
2023-12-26T02:24:24.119Z,99.16
2023-12-26T02:25:24.077Z,99.16
2023-12-26T02:26:24.054Z,99.16
2023-12-26T02:27:24.108Z,98.86
2023-12-26T02:28:24.053Z,98.96
2023-12-26T02:29:24.028Z,98.86
2023-12-26T02:30:24.118Z,98.86
2023-12-26T02:31:24.005Z,98.75
2023-12-26T02:32:24.284Z,98.75
2023-12-26T02:33:24.109Z,98.86
2023-12-26T02:34:24.154Z,98.55
2023-12-26T02:35:23.971Z,98.24
2023-12-26T02:36:23.969Z,98.04
2023-12-26T02:37:23.962Z,98.14
2023-12-26T02:38:23.950Z,98.35
2023-12-26T02:39:23.920Z,97.74
2023-12-26T02:40:23.909Z,97.83
2023-12-26T02:41:23.904Z,97.94
2023-12-26T02:42:23.905Z,97.69
2023-12-26T02:43:23.894Z,97.83
2023-12-26T02:44:23.856Z,97.17
2023-12-26T02:45:23.858Z,97.69
2023-12-26T02:46:23.844Z,97.28
2023-12-26T02:47:23.885Z,96.97
2023-12-26T02:48:23.935Z,96.97
2023-12-26T02:49:23.949Z,96.77
2023-12-26T02:50:23.814Z,96.46
2023-12-26T02:51:23.915Z,95.44
2023-12-26T02:52:23.817Z,96.05
2023-12-26T02:53:23.776Z,95.13
2023-12-26T02:54:23.772Z,95.34
2023-12-26T02:55:23.768Z,95.13
2023-12-26T02:56:23.760Z,94.73
2023-12-26T02:57:23.742Z,94.32
2023-12-26T02:58:23.723Z,94.52
2023-12-26T02:59:23.722Z,94.42
2023-12-26T03:00:23.708Z,94.89
2023-12-26T03:01:23.721Z,93.91
2023-12-26T03:02:23.757Z,94.11
2023-12-26T03:03:23.804Z,92.88
2023-12-26T03:04:23.671Z,93.55
2023-12-26T03:05:23.731Z,93.19
2023-12-26T03:06:23.663Z,92.94
2023-12-26T03:07:23.643Z,93.15
2023-12-26T03:08:23.610Z,93.35
2023-12-26T03:09:23.832Z,93.35
2023-12-26T03:10:23.608Z,93.15
2023-12-26T03:11:23.589Z,92.74
2023-12-26T03:12:23.580Z,93.66
2023-12-26T03:13:23.586Z,92.54
2023-12-26T03:14:23.574Z,92.54
2023-12-26T03:15:23.614Z,92.64
2023-12-26T03:16:23.533Z,92.84
2023-12-26T03:17:23.544Z,93.15
2023-12-26T03:18:23.599Z,93.60
2023-12-26T03:19:23.859Z,93.96
2023-12-26T03:20:23.506Z,94.52
2023-12-26T03:21:23.492Z,95.09
2023-12-26T03:22:23.464Z,94.82
2023-12-26T03:23:23.464Z,94.89
2023-12-26T03:24:23.469Z,94.42
2023-12-26T03:25:23.452Z,94.11
2023-12-26T03:26:23.425Z,94.11
2023-12-26T03:27:23.419Z,94.62
2023-12-26T03:28:23.432Z,94.01
2023-12-26T03:29:23.432Z,94.62
2023-12-26T03:30:23.502Z,94.32
2023-12-26T03:31:23.386Z,95.23
2023-12-26T03:32:23.395Z,95.03
2023-12-26T03:33:23.429Z,95.44
2023-12-26T03:34:23.403Z,95.79
2023-12-26T03:35:23.344Z,96.51
2023-12-26T03:36:23.337Z,96.92
2023-12-26T03:37:23.327Z,97.33
2023-12-26T03:38:23.327Z,97.74
2023-12-26T03:39:23.312Z,98.19
2023-12-26T03:40:23.284Z,98.60
2023-12-26T03:41:23.277Z,98.70
2023-12-26T03:42:23.332Z,99.01
2023-12-26T03:43:23.270Z,98.60
2023-12-26T03:44:23.245Z,99.11
2023-12-26T03:45:23.305Z,99.21
2023-12-26T03:46:23.223Z,99.11
2023-12-26T03:47:23.243Z,99.52
2023-12-26T03:48:23.338Z,99.31
2023-12-26T03:49:23.285Z,99.41
2023-12-26T03:50:23.196Z,99.62
2023-12-26T03:51:23.178Z,98.90
2023-12-26T03:52:23.181Z,98.49
2023-12-26T03:53:23.157Z,98.39
2023-12-26T03:54:23.139Z,98.65
2023-12-26T03:55:23.137Z,98.74
2023-12-26T03:56:23.110Z,98.95
2023-12-26T03:57:23.134Z,98.95
2023-12-26T03:58:23.142Z,99.05
2023-12-26T03:59:23.100Z,98.90
2023-12-26T04:00:23.072Z,98.54
2023-12-26T04:01:23.086Z,98.80
2023-12-26T04:02:23.069Z,98.65
2023-12-26T04:03:23.169Z,98.74
2023-12-26T04:04:23.154Z,97.62
2023-12-26T04:05:23.073Z,98.03
2023-12-26T04:06:23.056Z,98.29
2023-12-26T04:07:23.007Z,98.03
2023-12-26T04:08:22.990Z,98.24
2023-12-26T04:09:22.987Z,98.44
2023-12-26T04:10:22.976Z,97.92
2023-12-26T04:11:22.993Z,97.31
2023-12-26T04:12:22.952Z,97.82
2023-12-26T04:13:22.941Z,97.11
2023-12-26T04:14:22.933Z,97.21
2023-12-26T04:15:22.991Z,97.52
2023-12-26T04:16:22.933Z,96.80
2023-12-26T04:17:22.936Z,97.11
2023-12-26T04:18:22.986Z,96.80
2023-12-26T04:19:23.014Z,97.11
2023-12-26T04:20:22.891Z,96.91
2023-12-26T04:21:22.851Z,97.00
2023-12-26T04:22:22.859Z,97.11
2023-12-26T04:23:22.841Z,97.11
2023-12-26T04:24:22.834Z,96.91
2023-12-26T04:25:22.825Z,97.00
2023-12-26T04:26:22.822Z,96.59
2023-12-26T04:27:22.811Z,97.00
2023-12-26T04:28:22.782Z,96.80
2023-12-26T04:29:22.792Z,96.49
2023-12-26T04:30:22.928Z,96.80
2023-12-26T04:31:22.750Z,97.00
2023-12-26T04:32:22.742Z,97.31
2023-12-26T04:33:22.840Z,96.64
2023-12-26T04:34:22.870Z,96.44
2023-12-26T04:35:22.716Z,96.54
2023-12-26T04:36:22.774Z,96.84
2023-12-26T04:37:22.694Z,97.15
2023-12-26T04:38:22.697Z,96.54
2023-12-26T04:39:22.687Z,96.64
2023-12-26T04:40:22.662Z,96.84
2023-12-26T04:41:22.650Z,96.64
2023-12-26T04:42:22.646Z,96.54
2023-12-26T04:43:22.645Z,97.15
2023-12-26T04:44:22.628Z,97.25
2023-12-26T04:45:22.660Z,96.84
2023-12-26T04:46:22.638Z,96.95
2023-12-26T04:47:22.618Z,96.64
2023-12-26T04:48:22.726Z,96.74
2023-12-26T04:49:22.724Z,97.05
2023-12-26T04:50:22.569Z,97.15
2023-12-26T04:51:22.545Z,97.36
2023-12-26T04:52:22.535Z,97.66
2023-12-26T04:53:23.323Z,97.15
2023-12-26T04:54:22.536Z,96.95
2023-12-26T04:55:22.513Z,97.77
2023-12-26T04:56:22.495Z,96.95
2023-12-26T04:57:22.527Z,97.36
2023-12-26T04:58:22.514Z,96.74
2023-12-26T04:59:24.858Z,96.74
2023-12-26T05:00:22.487Z,97.05
2023-12-26T05:01:22.454Z,96.95
2023-12-26T05:02:22.542Z,97.15
2023-12-26T05:03:22.484Z,97.25
2023-12-26T05:04:22.485Z,97.25
2023-12-26T05:05:22.416Z,97.46
2023-12-26T05:06:22.637Z,96.64
2023-12-26T05:07:22.469Z,96.33
2023-12-26T05:08:22.398Z,96.95
2023-12-26T05:09:22.376Z,96.95
2023-12-26T05:10:22.349Z,97.15
2023-12-26T05:11:22.384Z,96.95
2023-12-26T05:12:22.329Z,96.95
2023-12-26T05:13:22.322Z,97.36
2023-12-26T05:14:22.316Z,97.05
2023-12-26T05:15:22.429Z,97.05
2023-12-26T05:16:22.303Z,97.05
2023-12-26T05:17:22.272Z,96.84
2023-12-26T05:18:22.416Z,97.25
2023-12-26T05:19:22.314Z,97.05
2023-12-26T05:20:30.329Z,96.95
2023-12-26T05:21:22.256Z,97.05
2023-12-26T05:22:22.235Z,97.05
2023-12-26T05:23:22.203Z,97.66
2023-12-26T05:24:22.205Z,97.46
2023-12-26T05:25:22.202Z,97.66
2023-12-26T05:26:22.194Z,98.07
2023-12-26T05:27:22.200Z,97.66
2023-12-26T05:28:22.177Z,98.38
2023-12-26T05:29:22.149Z,98.49
2023-12-26T05:30:22.334Z,98.28
2023-12-26T05:31:22.113Z,98.53
2023-12-26T05:32:22.254Z,99.04
2023-12-26T05:33:22.421Z,98.83
2023-12-26T05:34:22.195Z,99.20
2023-12-26T05:35:22.096Z,99.10
2023-12-26T05:36:22.150Z,98.90
2023-12-26T05:37:22.056Z,98.58
2023-12-26T05:38:22.059Z,98.58
2023-12-26T05:39:22.134Z,98.79
2023-12-26T05:40:22.031Z,98.99
2023-12-26T05:41:22.019Z,98.79
2023-12-26T05:42:22.035Z,98.38
2023-12-26T05:43:21.987Z,98.28
2023-12-26T05:44:22.003Z,98.58
2023-12-26T05:45:22.044Z,98.02
2023-12-26T05:46:21.963Z,98.38
2023-12-26T05:47:22.012Z,98.38
2023-12-26T05:48:22.144Z,98.69
2023-12-26T05:49:22.131Z,98.79
2023-12-26T05:50:22.006Z,98.79
2023-12-26T05:51:21.982Z,98.02
2023-12-26T05:52:21.902Z,98.33
2023-12-26T05:53:21.903Z,98.43
2023-12-26T05:54:22.034Z,98.63
2023-12-26T05:55:21.871Z,98.63
2023-12-26T05:56:21.876Z,98.63
2023-12-26T05:57:22.107Z,98.53
2023-12-26T05:58:21.893Z,98.74
2023-12-26T05:59:21.828Z,98.58
2023-12-26T06:00:21.953Z,98.69
2023-12-26T06:01:21.807Z,98.43
2023-12-26T06:02:21.826Z,98.63
2023-12-26T06:03:21.953Z,98.63
2023-12-26T06:04:21.790Z,98.43
2023-12-26T06:05:21.774Z,98.63
2023-12-26T06:06:21.853Z,98.38
2023-12-26T06:07:21.765Z,98.22
2023-12-26T06:08:21.737Z,98.28
2023-12-26T06:09:21.801Z,98.69
2023-12-26T06:10:21.717Z,98.38
2023-12-26T06:11:21.702Z,98.69
2023-12-26T06:12:21.729Z,98.58
2023-12-26T06:13:21.674Z,98.49
2023-12-26T06:14:21.681Z,98.28
2023-12-26T06:15:21.694Z,98.74
2023-12-26T06:16:21.665Z,98.69
2023-12-26T06:17:21.657Z,98.79
2023-12-26T06:18:21.741Z,98.90
2023-12-26T06:19:21.759Z,98.90
2023-12-26T06:20:21.687Z,98.90
2023-12-26T06:21:21.642Z,98.90
2023-12-26T06:22:21.607Z,99.45
2023-12-26T06:23:21.573Z,99.55
2023-12-26T06:24:21.638Z,99.76
2023-12-26T06:25:21.558Z,99.55
2023-12-26T06:26:21.563Z,99.99
2023-12-26T06:27:21.599Z,99.99
2023-12-26T06:28:21.521Z,99.99
2023-12-26T06:29:21.510Z,99.99
2023-12-26T06:30:21.643Z,99.99
2023-12-26T06:31:21.574Z,99.99
2023-12-26T06:32:21.487Z,99.99
2023-12-26T06:33:21.647Z,99.99
2023-12-26T06:34:21.601Z,99.99
2023-12-26T06:35:21.463Z,99.99
2023-12-26T06:36:21.517Z,99.99
2023-12-26T06:37:21.424Z,99.99
2023-12-26T06:38:21.425Z,99.99
2023-12-26T06:39:21.427Z,99.99
2023-12-26T06:40:21.420Z,99.99
2023-12-26T06:41:21.383Z,99.99
2023-12-26T06:42:21.446Z,99.99
2023-12-26T06:43:21.364Z,99.99
2023-12-26T06:44:21.376Z,99.99
2023-12-26T06:45:21.368Z,99.99
2023-12-26T06:46:21.333Z,99.99
2023-12-26T06:47:21.397Z,99.99
2023-12-26T06:48:21.589Z,99.99
2023-12-26T06:49:21.443Z,99.99
2023-12-26T06:50:21.294Z,99.99
2023-12-26T06:51:21.288Z,99.99
2023-12-26T06:52:21.285Z,99.99
2023-12-26T06:53:21.260Z,99.99
2023-12-26T06:54:21.453Z,99.99
2023-12-26T06:55:21.236Z,99.99
2023-12-26T06:56:21.251Z,99.99
2023-12-26T06:57:21.183Z,99.99
2023-12-26T06:58:21.193Z,99.99
2023-12-26T06:59:21.179Z,99.99
2023-12-26T07:00:21.152Z,99.99
2023-12-26T07:01:21.155Z,99.99
2023-12-26T07:02:21.126Z,99.99
2023-12-26T07:03:21.226Z,99.99
2023-12-26T07:04:21.155Z,99.99
2023-12-26T07:05:21.115Z,99.99
2023-12-26T07:06:21.092Z,99.99
2023-12-26T07:07:21.066Z,99.99
2023-12-26T07:08:21.062Z,99.99
2023-12-26T07:09:21.130Z,99.99
2023-12-26T07:10:21.041Z,99.99
2023-12-26T07:11:21.018Z,99.99
2023-12-26T07:12:21.142Z,99.99
2023-12-26T07:13:21.004Z,99.99
2023-12-26T07:14:20.988Z,99.99
2023-12-26T07:15:21.054Z,99.99
2023-12-26T07:16:20.979Z,99.99
2023-12-26T07:17:20.963Z,99.99
2023-12-26T07:18:21.238Z,99.99
2023-12-26T07:19:21.055Z,99.99
2023-12-26T07:20:20.943Z,99.99
2023-12-26T07:21:20.923Z,99.99
2023-12-26T07:22:20.947Z,99.76
2023-12-26T07:23:20.887Z,99.76
2023-12-26T07:24:20.914Z,99.66
2023-12-26T07:25:20.873Z,99.66
2023-12-26T07:26:20.905Z,97.50
2023-12-26T07:27:20.888Z,96.48
2023-12-26T07:28:20.842Z,97.20
2023-12-26T07:29:20.835Z,96.79
2023-12-26T07:30:20.903Z,96.64
2023-12-26T07:31:20.824Z,95.62
2023-12-26T07:32:20.798Z,95.72
2023-12-26T07:33:20.874Z,95.10
2023-12-26T07:34:20.808Z,94.90
2023-12-26T07:35:20.757Z,94.49
2023-12-26T07:36:20.880Z,94.70
2023-12-26T07:37:20.773Z,94.80
2023-12-26T07:38:20.737Z,94.39
2023-12-26T07:39:20.817Z,93.16
2023-12-26T07:40:20.981Z,93.06
2023-12-26T07:41:20.721Z,92.85
2023-12-26T07:42:20.777Z,91.63
2023-12-26T07:43:20.681Z,90.70
2023-12-26T07:44:20.688Z,89.53
2023-12-26T07:45:20.840Z,91.17
2023-12-26T07:46:20.658Z,90.97
2023-12-26T07:47:20.640Z,89.74
2023-12-26T07:48:20.764Z,89.84
2023-12-26T07:49:20.782Z,89.23
2023-12-26T07:50:21.298Z,89.33
2023-12-26T07:51:20.627Z,88.51
2023-12-26T07:52:20.591Z,88.62
2023-12-26T07:53:20.580Z,88.92
2023-12-26T07:54:20.615Z,88.92
2023-12-26T07:55:21.224Z,89.64
2023-12-26T07:56:20.558Z,89.53
2023-12-26T07:57:20.550Z,89.94
2023-12-26T07:58:20.550Z,88.31
2023-12-26T07:59:20.526Z,87.29
2023-12-26T08:00:20.603Z,87.59
2023-12-26T08:01:20.497Z,87.38
2023-12-26T08:02:20.487Z,87.70
2023-12-26T08:03:20.551Z,86.77
2023-12-26T08:04:20.505Z,87.29
2023-12-26T08:05:20.456Z,85.48
2023-12-26T08:06:20.502Z,86.67
2023-12-26T08:07:20.444Z,86.10
2023-12-26T08:08:20.436Z,85.38
2023-12-26T08:09:20.495Z,86.88
2023-12-26T08:10:20.428Z,87.70
2023-12-26T08:11:20.391Z,85.96
2023-12-26T08:12:20.499Z,85.96
2023-12-26T08:13:20.380Z,86.61
2023-12-26T08:14:20.366Z,86.67
2023-12-26T08:15:20.449Z,86.05
2023-12-26T08:16:20.348Z,85.48
2023-12-26T08:17:20.355Z,86.98
2023-12-26T08:18:20.489Z,87.08
2023-12-26T08:19:21.444Z,87.29
2023-12-26T08:20:20.299Z,86.88
2023-12-26T08:21:20.329Z,87.08
2023-12-26T08:22:20.320Z,87.29
2023-12-26T08:23:20.279Z,86.88
2023-12-26T08:24:20.287Z,85.44
2023-12-26T08:25:20.530Z,85.14
2023-12-26T08:26:20.234Z,84.83
2023-12-26T08:27:20.347Z,84.42
2023-12-26T08:28:20.212Z,84.72
2023-12-26T08:29:20.216Z,85.55
2023-12-26T08:30:20.295Z,84.93
2023-12-26T08:31:20.238Z,85.24
2023-12-26T08:32:20.176Z,86.16
2023-12-26T08:33:20.236Z,86.88
2023-12-26T08:34:20.257Z,85.85
2023-12-26T08:35:20.189Z,85.96
2023-12-26T08:36:20.217Z,85.85
2023-12-26T08:37:20.138Z,85.85
2023-12-26T08:38:20.106Z,86.36
2023-12-26T08:39:20.209Z,85.14
2023-12-26T08:40:20.085Z,85.64
2023-12-26T08:41:20.112Z,86.57
2023-12-26T08:42:20.134Z,86.67
2023-12-26T08:43:20.064Z,86.67
2023-12-26T08:44:20.050Z,85.96
2023-12-26T08:45:20.195Z,86.67
2023-12-26T08:46:20.051Z,86.16
2023-12-26T08:47:20.022Z,86.46
2023-12-26T08:48:20.079Z,86.46
2023-12-26T08:49:20.063Z,87.38
2023-12-26T08:50:20.022Z,87.29
2023-12-26T08:51:20.022Z,88.00
2023-12-26T08:52:19.955Z,88.51
2023-12-26T08:53:19.953Z,87.22
2023-12-26T08:54:19.957Z,87.94
2023-12-26T08:55:19.951Z,88.82
2023-12-26T08:56:19.911Z,89.74
2023-12-26T08:57:19.964Z,89.43
2023-12-26T08:58:19.888Z,88.20
2023-12-26T08:59:19.892Z,88.86
2023-12-26T09:00:19.931Z,88.41
2023-12-26T09:01:19.863Z,87.94
2023-12-26T09:02:19.850Z,87.94
2023-12-26T09:03:19.872Z,88.35
2023-12-26T09:04:19.909Z,88.65
2023-12-26T09:05:19.837Z,87.08
2023-12-26T09:06:19.928Z,87.90
2023-12-26T09:07:19.796Z,88.10
2023-12-26T09:08:19.786Z,87.90
2023-12-26T09:09:19.858Z,87.49
2023-12-26T09:10:19.762Z,88.31
2023-12-26T09:11:19.764Z,87.08
2023-12-26T09:12:19.854Z,87.14
2023-12-26T09:13:19.738Z,87.45
2023-12-26T09:14:19.736Z,86.73
2023-12-26T09:15:19.741Z,86.32
2023-12-26T09:16:19.700Z,86.08
2023-12-26T09:17:19.788Z,86.38
2023-12-26T09:18:19.763Z,85.47
2023-12-26T09:19:19.848Z,84.14
2023-12-26T09:20:19.666Z,84.65
2023-12-26T09:21:19.724Z,84.50
2023-12-26T09:22:19.649Z,85.22
2023-12-26T09:23:19.654Z,84.09
2023-12-26T09:24:19.721Z,85.22
2023-12-26T09:25:19.614Z,83.11
2023-12-26T09:26:19.592Z,84.75
2023-12-26T09:27:19.625Z,85.06
2023-12-26T09:28:19.578Z,84.91
2023-12-26T09:29:19.584Z,82.60
2023-12-26T09:30:19.865Z,83.01
2023-12-26T09:31:19.569Z,82.60
2023-12-26T09:32:19.557Z,83.05
2023-12-26T09:33:19.644Z,83.36
2023-12-26T09:34:19.716Z,84.38
2023-12-26T09:35:19.505Z,84.38
2023-12-26T09:36:19.517Z,83.56
2023-12-26T09:37:19.498Z,83.46
2023-12-26T09:38:19.469Z,83.56
2023-12-26T09:39:19.494Z,83.56
2023-12-26T09:40:19.447Z,83.36
2023-12-26T09:41:19.439Z,83.66
2023-12-26T09:42:19.522Z,83.15
2023-12-26T09:43:19.431Z,83.87
2023-12-26T09:44:19.405Z,82.95
2023-12-26T09:45:19.427Z,83.36
2023-12-26T09:46:19.395Z,82.75
2023-12-26T09:47:19.393Z,82.64
2023-12-26T09:48:19.480Z,82.64
2023-12-26T09:49:19.563Z,83.36
2023-12-26T09:50:19.464Z,82.95
2023-12-26T09:51:19.452Z,83.76
2023-12-26T09:52:19.323Z,84.69
2023-12-26T09:53:19.316Z,83.76
2023-12-26T09:55:19.317Z,82.84
2023-12-26T09:56:19.849Z,84.17
2023-12-26T09:57:19.353Z,82.95
2023-12-26T09:58:19.263Z,84.79
2023-12-26T09:59:19.270Z,83.87
2023-12-26T10:00:19.285Z,83.87
2023-12-26T10:01:19.306Z,85.20
2023-12-26T10:02:19.229Z,85.71
2023-12-26T10:03:19.301Z,85.50
2023-12-26T10:04:19.196Z,85.36
2023-12-26T10:05:19.443Z,85.16
2023-12-26T10:06:19.238Z,85.47
2023-12-26T10:07:19.171Z,84.95
2023-12-26T10:08:19.152Z,84.65
2023-12-26T10:09:19.181Z,84.75
2023-12-26T10:10:19.148Z,84.44
2023-12-26T10:11:19.131Z,84.85
2023-12-26T10:12:19.205Z,84.24
2023-12-26T10:13:19.108Z,84.24
2023-12-26T10:14:19.108Z,85.06
2023-12-26T10:15:19.262Z,85.16
2023-12-26T10:16:19.079Z,83.52
2023-12-26T10:17:19.065Z,83.32
2023-12-26T10:18:19.190Z,81.07
2023-12-26T10:19:19.142Z,81.68
2023-12-26T10:20:19.026Z,81.38
2023-12-26T10:21:19.224Z,81.27
2023-12-26T10:22:19.006Z,78.82
2023-12-26T10:23:19.012Z,78.52
2023-12-26T10:24:19.064Z,78.27
2023-12-26T10:25:18.999Z,78.17
2023-12-26T10:26:18.969Z,79.50
2023-12-26T10:27:19.017Z,78.38
2023-12-26T10:28:18.959Z,77.35
2023-12-26T10:29:18.965Z,78.07
2023-12-26T10:30:19.113Z,76.53
2023-12-26T10:31:19.035Z,75.82
2023-12-26T10:32:18.907Z,75.71
2023-12-26T10:33:19.017Z,76.74
2023-12-26T10:34:19.140Z,75.45
2023-12-26T10:35:18.889Z,75.65
2023-12-26T10:36:18.902Z,75.75
2023-12-26T10:37:18.866Z,75.65
2023-12-26T10:38:18.870Z,76.30
2023-12-26T10:39:19.228Z,76.20
2023-12-26T10:40:18.827Z,75.17
2023-12-26T10:41:18.823Z,76.30
2023-12-26T10:42:18.874Z,74.87
2023-12-26T10:43:18.833Z,76.50
2023-12-26T10:44:18.788Z,76.71
2023-12-26T10:45:18.822Z,77.32
2023-12-26T10:46:18.781Z,76.30
2023-12-26T10:47:18.972Z,76.61
2023-12-26T10:48:18.874Z,75.38
2023-12-26T10:49:18.974Z,76.81
2023-12-26T10:50:18.724Z,76.30
2023-12-26T10:51:18.724Z,75.99
2023-12-26T10:52:19.280Z,75.17
2023-12-26T10:53:18.709Z,74.49
2023-12-26T10:54:18.718Z,76.64
2023-12-26T10:55:18.688Z,76.64
2023-12-26T10:56:18.694Z,77.22
2023-12-26T10:57:18.729Z,77.46
2023-12-26T10:58:18.649Z,77.36
2023-12-26T10:59:18.664Z,77.87
2023-12-26T11:00:18.711Z,76.84
2023-12-26T11:01:18.732Z,77.26
2023-12-26T11:02:18.610Z,77.05
2023-12-26T11:03:18.673Z,77.15
2023-12-26T11:04:18.657Z,78.08
2023-12-26T11:05:18.619Z,77.46
2023-12-26T11:06:21.050Z,78.17
2023-12-26T11:07:18.558Z,77.46
2023-12-26T11:08:18.541Z,76.34
2023-12-26T11:09:18.630Z,77.42
2023-12-26T11:10:18.554Z,78.14
2023-12-26T11:11:18.552Z,78.34
2023-12-26T11:12:18.537Z,76.20
2023-12-26T11:13:18.515Z,76.61
2023-12-26T11:14:18.475Z,76.40
2023-12-26T11:15:18.574Z,75.68
2023-12-26T11:16:18.459Z,76.71
2023-12-26T11:17:18.530Z,78.04
2023-12-26T11:18:18.616Z,77.42
2023-12-26T11:19:18.524Z,77.12
2023-12-26T11:20:18.570Z,76.61
2023-12-26T11:21:18.492Z,77.63
2023-12-26T11:22:18.402Z,76.20
2023-12-26T11:23:18.390Z,76.40
2023-12-26T11:24:18.960Z,76.71
2023-12-26T11:25:18.398Z,76.23
2023-12-26T11:26:18.368Z,76.23
2023-12-26T11:27:18.407Z,76.75
2023-12-26T11:28:18.338Z,76.34
2023-12-26T11:29:18.342Z,76.23
2023-12-26T11:30:18.377Z,76.75
2023-12-26T11:31:18.359Z,77.22
2023-12-26T11:32:18.297Z,76.03
2023-12-26T11:33:18.367Z,76.50
2023-12-26T11:34:18.393Z,75.99
2023-12-26T11:35:18.262Z,76.71
2023-12-26T11:36:18.300Z,76.61
2023-12-26T11:37:18.249Z,77.01
2023-12-26T11:38:18.253Z,74.97
2023-12-26T11:39:18.374Z,74.76
2023-12-26T11:40:18.204Z,74.26
2023-12-26T11:41:18.203Z,75.17
2023-12-26T11:42:18.259Z,75.89
2023-12-26T11:43:18.191Z,75.17
2023-12-26T11:44:18.168Z,74.97
2023-12-26T11:45:18.305Z,75.27
2023-12-26T11:46:18.136Z,75.34
2023-12-26T11:47:18.158Z,74.76
2023-12-26T11:48:18.286Z,75.75
2023-12-26T11:49:18.226Z,75.96
2023-12-26T11:50:18.097Z,75.04
2023-12-26T11:51:18.177Z,74.66
2023-12-26T11:52:18.155Z,75.48
2023-12-26T11:53:18.082Z,74.87
2023-12-26T11:54:18.090Z,75.17
2023-12-26T11:55:18.047Z,75.27
2023-12-26T11:56:18.040Z,73.94
2023-12-26T11:57:18.061Z,75.07
2023-12-26T11:58:18.016Z,74.46
2023-12-26T11:59:18.012Z,74.05
2023-12-26T12:00:18.075Z,73.74
2023-12-26T12:01:18.010Z,74.15
2023-12-26T12:02:17.990Z,74.66
2023-12-26T12:03:18.047Z,75.38
2023-12-26T12:04:18.017Z,76.61
2023-12-26T12:05:17.949Z,77.08
2023-12-26T12:06:18.128Z,76.26
2023-12-26T12:07:17.950Z,74.02
2023-12-26T12:08:17.913Z,74.73
2023-12-26T12:09:18.005Z,75.65
2023-12-26T12:10:17.883Z,74.93
2023-12-26T12:11:17.918Z,73.81
2023-12-26T12:12:17.890Z,75.65
2023-12-26T12:13:17.859Z,73.91
2023-12-26T12:14:17.845Z,74.73
2023-12-26T12:15:17.928Z,74.43
2023-12-26T12:16:17.845Z,74.80
2023-12-26T12:17:17.821Z,71.94
2023-12-26T12:18:17.893Z,76.03
2023-12-26T12:19:17.924Z,75.62
2023-12-26T12:20:17.792Z,74.87
2023-12-26T12:21:17.884Z,74.46
2023-12-26T12:22:17.765Z,73.94
2023-12-26T12:23:17.766Z,74.22
2023-12-26T12:24:17.778Z,73.40
2023-12-26T12:25:17.790Z,73.30
2023-12-26T12:26:17.722Z,72.79
2023-12-26T12:27:17.723Z,72.69
2023-12-26T12:28:17.706Z,72.17
2023-12-26T12:29:17.692Z,73.40
2023-12-26T12:30:17.881Z,71.97
2023-12-26T12:31:17.718Z,71.67
2023-12-26T12:32:17.706Z,72.99
2023-12-26T12:33:17.738Z,73.71
2023-12-26T12:34:17.793Z,73.71
2023-12-26T12:35:17.841Z,72.79
2023-12-26T12:36:17.653Z,73.40
2023-12-26T12:37:17.602Z,74.83
2023-12-26T12:38:17.598Z,76.50
2023-12-26T12:39:17.728Z,72.11
2023-12-26T12:40:17.595Z,73.13
2023-12-26T12:41:17.576Z,73.94
2023-12-26T12:42:17.608Z,71.59
2023-12-26T12:43:17.554Z,73.13
2023-12-26T12:44:17.561Z,72.41
2023-12-26T12:45:17.623Z,72.04
2023-12-26T12:46:17.545Z,72.04
2023-12-26T12:47:17.500Z,72.14
2023-12-26T12:48:17.768Z,72.34
2023-12-26T12:49:19.305Z,72.65
2023-12-26T12:50:17.486Z,73.68
2023-12-26T12:51:17.552Z,72.99
2023-12-26T12:52:17.460Z,73.61
2023-12-26T12:53:17.461Z,72.89